createdAt,value
2023-04-10T00:00:41.888Z,3.69
2023-04-10T00:03:08.468Z,3.66
2023-04-10T00:05:35.021Z,3.63
2023-04-10T00:08:01.451Z,3.57
2023-04-10T00:10:27.768Z,3.52
2023-04-10T00:12:54.150Z,3.49
2023-04-10T00:15:20.663Z,3.47
2023-04-10T00:17:46.998Z,3.44
2023-04-10T00:20:13.313Z,3.44
2023-04-10T00:22:39.593Z,3.39
2023-04-10T00:25:06.372Z,3.35
2023-04-10T00:27:32.673Z,3.31
2023-04-10T00:29:58.987Z,3.29
2023-04-10T00:32:25.412Z,3.30
2023-04-10T00:34:51.821Z,3.28
2023-04-10T00:37:18.198Z,3.23
2023-04-10T00:39:45.000Z,3.20
2023-04-10T00:42:11.368Z,3.16
2023-04-10T00:44:37.686Z,3.11
2023-04-10T00:47:05.148Z,3.06
2023-04-10T00:49:31.443Z,3.00
2023-04-10T00:51:58.584Z,2.98
2023-04-10T00:54:25.374Z,2.97
2023-04-10T00:56:52.058Z,2.97
2023-04-10T00:59:18.749Z,2.98
2023-04-10T01:01:45.117Z,2.99
2023-04-10T01:04:11.730Z,2.97
2023-04-10T01:07:07.304Z,2.96
2023-04-10T01:09:59.895Z,2.91
2023-04-10T01:12:53.605Z,2.86
2023-04-10T01:15:26.776Z,2.81
2023-04-10T01:18:13.081Z,2.74
2023-04-10T01:20:41.796Z,2.68
2023-04-10T01:23:54.326Z,2.68
2023-04-10T01:26:39.419Z,2.67
2023-04-10T01:29:12.307Z,2.65
2023-04-10T01:31:54.358Z,2.62
2023-04-10T01:34:25.039Z,2.61
2023-04-10T01:37:03.722Z,2.61
2023-04-10T01:39:31.148Z,2.62
2023-04-10T01:41:58.947Z,2.60
2023-04-10T01:44:26.948Z,2.56
2023-04-10T01:46:55.244Z,2.53
2023-04-10T01:49:23.947Z,2.48
2023-04-10T01:51:51.574Z,2.49
2023-04-10T01:54:18.223Z,2.44
2023-04-10T01:56:44.647Z,2.39
2023-04-10T01:59:11.643Z,2.34
2023-04-10T02:01:38.365Z,2.30
2023-04-10T02:04:05.090Z,2.28
2023-04-10T02:07:08.494Z,2.28
2023-04-10T02:09:40.713Z,2.23
2023-04-10T02:12:12.422Z,2.18
2023-04-10T02:14:42.668Z,2.14
2023-04-10T02:17:10.899Z,2.12
2023-04-10T02:19:38.502Z,2.09
2023-04-10T02:22:05.218Z,2.06
2023-04-10T02:24:32.224Z,2.03
2023-04-10T02:26:58.628Z,1.99
2023-04-10T02:29:24.908Z,1.96
2023-04-10T02:31:51.250Z,1.93
2023-04-10T02:34:17.549Z,1.92
2023-04-10T02:36:43.973Z,1.92
2023-04-10T02:39:10.259Z,1.88
2023-04-10T02:41:36.544Z,1.84
2023-04-10T02:44:03.011Z,1.80
2023-04-10T02:46:29.355Z,1.79
2023-04-10T02:48:55.806Z,1.78
2023-04-10T02:51:22.075Z,1.78
2023-04-10T02:53:48.500Z,1.74
2023-04-10T02:56:14.822Z,1.68
2023-04-10T02:58:41.185Z,1.63
2023-04-10T03:01:07.482Z,1.62
2023-04-10T03:03:33.845Z,1.63
2023-04-10T03:06:00.207Z,1.67
2023-04-10T03:08:26.532Z,1.70
2023-04-10T03:10:52.842Z,1.67
2023-04-10T03:13:19.118Z,1.60
2023-04-10T03:15:45.448Z,1.56
2023-04-10T03:18:11.824Z,1.56
2023-04-10T03:20:38.231Z,1.59
2023-04-10T03:23:05.691Z,1.62
2023-04-10T03:25:34.361Z,1.64
2023-04-10T03:28:00.808Z,1.61
2023-04-10T03:30:27.123Z,1.57
2023-04-10T03:32:53.481Z,1.55
2023-04-10T03:35:19.878Z,1.52
2023-04-10T03:37:46.259Z,1.52
2023-04-10T03:40:12.955Z,1.52
2023-04-10T03:42:39.244Z,1.49
2023-04-10T03:45:05.989Z,1.44
2023-04-10T03:47:32.449Z,1.39
2023-04-10T03:49:59.027Z,1.40
2023-04-10T03:52:25.996Z,1.39
2023-04-10T03:54:52.276Z,1.38
2023-04-10T03:57:18.601Z,1.37
2023-04-10T03:59:44.870Z,1.37
2023-04-10T04:02:11.513Z,1.36
2023-04-10T04:04:38.168Z,1.33
2023-04-10T04:07:04.760Z,1.31
2023-04-10T04:09:31.151Z,1.29
2023-04-10T04:11:57.408Z,1.25
2023-04-10T04:14:24.077Z,1.21
2023-04-10T04:16:50.600Z,1.19
2023-04-10T04:19:19.594Z,1.20
2023-04-10T04:21:45.898Z,1.20
2023-04-10T04:26:38.704Z,1.16
2023-04-10T04:29:04.976Z,1.17
2023-04-10T04:31:31.294Z,1.15
2023-04-10T04:33:58.658Z,1.07
2023-04-10T04:36:24.952Z,1.00
2023-04-10T04:38:51.223Z,0.99
2023-04-10T04:41:19.403Z,0.97
2023-04-10T04:43:46.730Z,0.97
2023-04-10T04:46:13.518Z,0.96
2023-04-10T04:48:39.970Z,0.98
2023-04-10T04:51:07.244Z,0.98
2023-04-10T04:53:33.576Z,1.03
2023-04-10T04:55:59.890Z,1.05
2023-04-10T04:58:26.191Z,1.11
2023-04-10T05:00:52.525Z,1.17
2023-04-10T05:03:19.163Z,1.23
2023-04-10T05:05:45.739Z,1.26
2023-04-10T05:08:12.035Z,1.30
2023-04-10T05:10:39.068Z,1.37
2023-04-10T05:13:05.506Z,1.41
2023-04-10T05:15:31.897Z,1.47
2023-04-10T05:17:58.282Z,1.56
2023-04-10T05:20:24.699Z,1.65
2023-04-10T05:22:51.002Z,1.75
2023-04-10T05:25:17.490Z,1.87
2023-04-10T05:27:43.884Z,1.96
2023-04-10T05:30:10.792Z,2.06
2023-04-10T05:32:37.180Z,2.15
2023-04-10T05:35:03.805Z,2.20
2023-04-10T05:37:30.107Z,2.26
2023-04-10T05:39:56.420Z,2.37
2023-04-10T05:42:23.929Z,2.48
2023-04-10T05:44:50.358Z,2.58
2023-04-10T05:47:16.649Z,2.64
2023-04-10T05:49:42.955Z,2.76
2023-04-10T05:52:09.462Z,2.90
2023-04-10T05:54:35.988Z,3.02
2023-04-10T05:57:02.266Z,3.21
2023-04-10T05:59:28.542Z,3.35
2023-04-10T06:01:56.765Z,3.52
2023-04-10T06:04:23.402Z,3.69
2023-04-10T06:06:49.884Z,3.86
2023-04-10T06:09:16.170Z,4.01
2023-04-10T06:11:42.460Z,4.13
2023-04-10T06:14:08.769Z,4.27
2023-04-10T06:16:35.138Z,4.35
2023-04-10T06:19:01.438Z,4.45
2023-04-10T06:21:27.740Z,4.56
2023-04-10T06:23:54.409Z,4.66
2023-04-10T06:26:21.016Z,4.73
2023-04-10T06:28:47.369Z,4.83
2023-04-10T06:31:13.673Z,4.93
2023-04-10T06:33:39.979Z,5.09
2023-04-10T06:36:06.862Z,5.24
2023-04-10T06:38:33.223Z,5.40
2023-04-10T06:40:59.493Z,5.53
2023-04-10T06:43:25.796Z,5.62
2023-04-10T06:45:52.090Z,5.74
2023-04-10T06:48:18.395Z,5.89
2023-04-10T06:50:44.694Z,5.97
2023-04-10T06:53:11.014Z,6.10
2023-04-10T06:55:37.306Z,6.24
2023-04-10T06:58:03.618Z,6.36
2023-04-10T07:00:30.349Z,6.52
2023-04-10T07:02:56.824Z,6.66
2023-04-10T07:05:23.144Z,6.76
2023-04-10T07:07:49.442Z,6.90
2023-04-10T07:10:16.147Z,7.05
2023-04-10T07:12:43.284Z,7.21
2023-04-10T07:15:09.808Z,7.38
2023-04-10T07:17:36.230Z,7.54
2023-04-10T07:20:02.838Z,7.70
2023-04-10T07:22:29.241Z,7.86
2023-04-10T07:24:55.524Z,8.00
2023-04-10T07:27:21.785Z,8.13
2023-04-10T07:29:48.081Z,8.29
2023-04-10T07:32:14.441Z,8.40
2023-04-10T07:34:41.209Z,8.45
2023-04-10T07:37:07.627Z,8.56
2023-04-10T07:39:33.912Z,8.68
2023-04-10T07:42:00.223Z,8.76
2023-04-10T07:44:26.949Z,8.86
2023-04-10T07:46:53.217Z,8.99
2023-04-10T07:49:19.699Z,9.15
2023-04-10T07:51:46.073Z,9.29
2023-04-10T07:54:12.487Z,9.42
2023-04-10T07:56:38.815Z,9.58
2023-04-10T07:59:05.623Z,9.71
2023-04-10T08:01:31.985Z,9.87
2023-04-10T08:03:58.759Z,10.02
2023-04-10T08:06:25.328Z,10.06
2023-04-10T08:08:51.767Z,10.11
2023-04-10T08:11:29.578Z,10.25
2023-04-10T08:13:58.380Z,10.33
2023-04-10T08:16:26.041Z,10.49
2023-04-10T08:18:53.690Z,10.66
2023-04-10T08:21:22.336Z,10.75
2023-04-10T08:23:53.037Z,10.87
2023-04-10T08:26:19.320Z,10.93
2023-04-10T08:28:47.892Z,10.97
2023-04-10T08:31:14.271Z,11.06
2023-04-10T08:33:40.706Z,11.11
2023-04-10T08:36:08.936Z,11.20
2023-04-10T08:38:35.308Z,11.23
2023-04-10T08:41:01.860Z,11.30
2023-04-10T08:43:28.218Z,11.39
2023-04-10T08:45:55.951Z,11.36
2023-04-10T08:48:31.011Z,11.39
2023-04-10T08:51:00.897Z,11.42
2023-04-10T08:53:31.412Z,11.53
2023-04-10T08:56:00.744Z,11.58
2023-04-10T08:58:28.252Z,11.62
2023-04-10T09:00:55.058Z,11.71
2023-04-10T09:03:21.828Z,11.83
2023-04-10T09:05:48.152Z,11.95
2023-04-10T09:08:15.127Z,12.07
2023-04-10T09:10:41.487Z,12.15
2023-04-10T09:13:07.772Z,12.14
2023-04-10T09:15:57.037Z,12.26
2023-04-10T09:18:40.789Z,12.31
2023-04-10T09:21:08.153Z,12.45
2023-04-10T09:23:34.497Z,12.53
2023-04-10T09:26:00.771Z,12.63
2023-04-10T09:28:27.137Z,12.65
2023-04-10T09:30:53.460Z,12.66
2023-04-10T09:33:21.144Z,12.67
2023-04-10T09:35:47.482Z,12.71
2023-04-10T09:38:15.782Z,12.76
2023-04-10T09:40:42.193Z,12.89
2023-04-10T09:43:19.430Z,13.04
2023-04-10T09:45:50.646Z,13.15
2023-04-10T09:48:17.597Z,13.08
2023-04-10T09:50:44.239Z,13.15
2023-04-10T09:53:13.753Z,13.20
2023-04-10T09:55:41.131Z,13.26
2023-04-10T09:58:08.603Z,13.29
2023-04-10T10:00:46.264Z,13.33
2023-04-10T10:03:18.079Z,13.37
2023-04-10T10:05:47.374Z,13.46
2023-04-10T10:08:15.044Z,13.49
2023-04-10T10:10:50.689Z,13.56
2023-04-10T10:13:28.144Z,13.64
2023-04-10T10:16:17.016Z,13.64
2023-04-10T10:19:10.006Z,13.78
2023-04-10T10:21:38.099Z,13.70
2023-04-10T10:24:08.471Z,13.65
2023-04-10T10:26:38.565Z,13.66
2023-04-10T10:29:09.403Z,13.66
2023-04-10T10:31:36.409Z,13.79
2023-04-10T10:34:03.757Z,13.86
2023-04-10T10:36:30.396Z,13.94
2023-04-10T10:39:08.521Z,14.06
2023-04-10T10:41:43.243Z,14.14
2023-04-10T10:44:20.438Z,14.23
2023-04-10T10:46:51.022Z,14.29
2023-04-10T10:49:17.336Z,14.42
2023-04-10T10:51:48.838Z,14.40
2023-04-10T10:54:28.195Z,14.38
2023-04-10T10:56:54.675Z,14.49
2023-04-10T10:59:48.801Z,14.57
2023-04-10T11:02:17.079Z,14.60
2023-04-10T11:04:50.398Z,14.62
2023-04-10T11:07:17.621Z,14.67
2023-04-10T11:09:50.897Z,14.69
2023-04-10T11:12:20.205Z,14.68
2023-04-10T11:14:58.264Z,14.79
2023-04-10T11:18:01.409Z,14.93
2023-04-10T11:20:27.789Z,14.99
2023-04-10T11:23:07.069Z,15.10
2023-04-10T11:25:51.005Z,15.18
2023-04-10T11:28:38.723Z,15.18
2023-04-10T11:31:21.380Z,15.18
2023-04-10T11:33:49.442Z,15.15
2023-04-10T11:36:16.841Z,15.24
2023-04-10T11:39:00.798Z,15.33
2023-04-10T11:41:41.188Z,15.31
2023-04-10T11:44:12.519Z,15.22
2023-04-10T11:46:45.568Z,15.28
2023-04-10T11:49:12.110Z,15.34
2023-04-10T11:51:40.050Z,15.30
2023-04-10T11:54:11.629Z,15.35
2023-04-10T11:56:40.181Z,15.36
2023-04-10T11:59:07.282Z,15.40
2023-04-10T12:01:34.414Z,15.32
2023-04-10T12:04:00.933Z,15.39
2023-04-10T12:06:27.904Z,15.52
2023-04-10T12:08:54.672Z,15.62
2023-04-10T12:11:23.904Z,15.66
2023-04-10T12:13:55.162Z,15.60
2023-04-10T12:16:21.780Z,15.45
2023-04-10T12:18:49.425Z,15.51
2023-04-10T12:21:16.138Z,15.58
2023-04-10T12:23:42.522Z,15.69
2023-04-10T12:26:13.290Z,15.62
2023-04-10T12:28:41.329Z,15.69
2023-04-10T12:31:08.377Z,15.77
2023-04-10T12:33:34.700Z,15.86
2023-04-10T12:36:01.224Z,15.92
2023-04-10T12:38:41.015Z,16.04
2023-04-10T12:41:08.982Z,16.09
2023-04-10T12:43:40.410Z,15.91
2023-04-10T12:46:08.898Z,15.74
2023-04-10T12:48:35.900Z,15.70
2023-04-10T12:51:03.143Z,15.65
2023-04-10T12:53:29.379Z,15.72
2023-04-10T12:56:00.862Z,15.75
2023-04-10T12:58:27.402Z,15.65
2023-04-10T13:00:55.252Z,15.64
2023-04-10T13:03:22.185Z,15.78
2023-04-10T13:05:48.758Z,15.88
2023-04-10T13:08:15.128Z,16.01
2023-04-10T13:10:41.427Z,16.22
2023-04-10T13:13:08.091Z,16.31
2023-04-10T13:15:34.665Z,16.31
2023-04-10T13:18:01.622Z,16.34
2023-04-10T13:20:29.656Z,16.36
2023-04-10T13:22:55.926Z,16.38
2023-04-10T13:25:22.209Z,16.44
2023-04-10T13:27:48.629Z,16.48
2023-04-10T13:30:14.898Z,16.50
2023-04-10T13:32:41.172Z,16.43
2023-04-10T13:35:07.990Z,16.44
2023-04-10T13:37:34.284Z,16.49
2023-04-10T13:40:00.576Z,16.49
2023-04-10T13:42:27.060Z,16.48
2023-04-10T13:44:53.328Z,16.60
2023-04-10T13:47:19.705Z,16.54
2023-04-10T13:49:46.000Z,16.48
2023-04-10T13:52:12.292Z,16.49
2023-04-10T13:54:38.737Z,16.38
2023-04-10T13:57:05.066Z,16.36
2023-04-10T13:59:31.467Z,16.37
2023-04-10T14:01:57.805Z,16.34
2023-04-10T14:04:24.309Z,16.19
2023-04-10T14:06:51.704Z,16.24
2023-04-10T14:09:18.598Z,16.36
2023-04-10T14:11:44.866Z,16.32
2023-04-10T14:14:11.414Z,16.31
2023-04-10T14:16:37.759Z,16.33
2023-04-10T14:19:04.099Z,16.22
2023-04-10T14:21:30.405Z,16.21
2023-04-10T14:23:56.697Z,16.11
2023-04-10T14:26:23.029Z,16.06
2023-04-10T14:28:49.308Z,16.15
2023-04-10T14:31:15.638Z,16.26
2023-04-10T14:33:41.924Z,16.39
2023-04-10T14:36:08.796Z,16.40
2023-04-10T14:38:35.112Z,16.38
2023-04-10T14:41:01.405Z,16.38
2023-04-10T14:43:27.748Z,16.31
2023-04-10T14:45:54.059Z,16.43
2023-04-10T14:48:20.527Z,16.50
2023-04-10T14:50:47.416Z,16.56
2023-04-10T14:53:13.838Z,16.63
2023-04-10T14:55:40.121Z,16.69
2023-04-10T14:58:06.669Z,16.71
2023-04-10T15:00:33.070Z,16.79
2023-04-10T15:02:59.601Z,16.83
2023-04-10T15:05:27.171Z,16.83
2023-04-10T15:07:54.161Z,16.82
2023-04-10T15:10:20.587Z,16.68
2023-04-10T15:12:46.951Z,16.72
2023-04-10T15:15:13.222Z,16.80
2023-04-10T15:17:39.544Z,16.68
2023-04-10T15:20:06.234Z,16.73
2023-04-10T15:22:32.707Z,16.90
2023-04-10T15:24:59.094Z,16.91
2023-04-10T15:27:25.478Z,16.96
2023-04-10T15:29:51.759Z,16.82
2023-04-10T15:32:18.207Z,16.76
2023-04-10T15:34:44.762Z,16.69
2023-04-10T15:37:11.237Z,16.74
2023-04-10T15:39:37.500Z,16.71
2023-04-10T15:42:05.221Z,16.68
2023-04-10T15:44:31.938Z,16.60
2023-04-10T15:46:58.242Z,16.61
2023-04-10T15:49:36.255Z,16.44
2023-04-10T15:52:05.558Z,16.35
2023-04-10T15:54:33.596Z,16.29
2023-04-10T15:56:59.891Z,16.32
2023-04-10T15:59:26.219Z,16.34
2023-04-10T16:01:52.538Z,16.30
2023-04-10T16:04:19.003Z,16.28
2023-04-10T16:06:45.476Z,16.33
2023-04-10T16:09:24.315Z,16.17
2023-04-10T16:11:52.761Z,16.16
2023-04-10T16:14:19.274Z,16.17
2023-04-10T16:16:45.855Z,16.18
2023-04-10T16:19:12.277Z,16.06
2023-04-10T16:21:38.557Z,15.88
2023-04-10T16:24:05.262Z,15.84
2023-04-10T16:26:31.522Z,15.84
2023-04-10T16:28:57.836Z,15.84
2023-04-10T16:31:24.404Z,15.85
2023-04-10T16:33:50.792Z,15.65
2023-04-10T16:36:17.727Z,15.57
2023-04-10T16:38:44.022Z,15.55
2023-04-10T16:41:10.351Z,15.51
2023-04-10T16:43:36.647Z,15.40
2023-04-10T16:46:03.126Z,15.32
2023-04-10T16:48:29.545Z,15.25
2023-04-10T16:50:55.843Z,15.15
2023-04-10T16:53:22.291Z,15.14
2023-04-10T16:56:01.938Z,15.03
2023-04-10T16:58:30.264Z,14.91
2023-04-10T17:00:56.581Z,14.91
2023-04-10T17:03:22.856Z,14.85
2023-04-10T17:05:49.267Z,14.80
2023-04-10T17:08:15.570Z,14.73
2023-04-10T17:10:41.910Z,14.64
2023-04-10T17:13:08.279Z,14.55
2023-04-10T17:15:35.351Z,14.48
2023-04-10T17:18:01.736Z,14.40
2023-04-10T17:20:28.133Z,14.33
2023-04-10T17:22:54.439Z,14.35
2023-04-10T17:25:20.852Z,14.29
2023-04-10T17:27:47.218Z,14.13
2023-04-10T17:30:13.974Z,14.05
2023-04-10T17:32:40.349Z,13.96
2023-04-10T17:35:07.027Z,13.86
2023-04-10T17:37:33.315Z,13.75
2023-04-10T17:39:59.620Z,13.66
2023-04-10T17:42:25.912Z,13.56
2023-04-10T17:44:52.181Z,13.45
2023-04-10T17:47:18.588Z,13.36
2023-04-10T17:49:44.874Z,13.20
2023-04-10T17:52:11.146Z,13.10
2023-04-10T17:54:37.543Z,13.03
2023-04-10T17:57:04.612Z,12.98
2023-04-10T17:59:30.971Z,12.94
2023-04-10T18:01:57.317Z,12.90
2023-04-10T18:04:23.804Z,12.82
2023-04-10T18:06:50.245Z,12.77
2023-04-10T18:09:16.548Z,12.72
2023-04-10T18:11:42.931Z,12.66
2023-04-10T18:14:09.769Z,12.60
2023-04-10T18:16:36.136Z,12.52
2023-04-10T18:19:02.565Z,12.44
2023-04-10T18:21:28.851Z,12.39
2023-04-10T18:23:55.185Z,12.31
2023-04-10T18:26:21.472Z,12.25
2023-04-10T18:28:47.780Z,12.19
2023-04-10T18:31:14.178Z,12.13
2023-04-10T18:33:40.496Z,12.08
2023-04-10T18:36:07.280Z,12.04
2023-04-10T18:38:34.212Z,11.97
2023-04-10T18:41:00.501Z,11.90
2023-04-10T18:43:26.845Z,11.89
2023-04-10T18:45:53.986Z,11.85
2023-04-10T18:48:20.462Z,11.84
2023-04-10T18:50:46.833Z,11.77
2023-04-10T18:53:13.270Z,11.76
2023-04-10T18:55:39.563Z,11.70
2023-04-10T18:58:05.850Z,11.68
2023-04-10T19:00:32.158Z,11.68
2023-04-10T19:02:58.482Z,11.68
2023-04-10T19:05:24.979Z,11.65
2023-04-10T19:08:02.974Z,11.61
2023-04-10T19:10:30.291Z,11.60
2023-04-10T19:12:56.601Z,11.54
2023-04-10T19:15:24.068Z,11.49
2023-04-10T19:17:54.317Z,11.48
2023-04-10T19:20:49.207Z,11.47
2023-04-10T19:23:07.733Z,11.38
2023-04-10T19:25:34.017Z,11.33
2023-04-10T19:28:00.965Z,11.31
2023-04-10T19:30:27.333Z,11.27
2023-04-10T19:32:53.780Z,11.26
2023-04-10T19:35:20.228Z,11.24
2023-04-10T19:37:46.516Z,11.24
2023-04-10T19:40:12.941Z,11.20
2023-04-10T19:42:39.271Z,11.14
2023-04-10T19:45:06.036Z,11.13
2023-04-10T19:47:32.318Z,11.13
2023-04-10T19:50:00.795Z,11.07
2023-04-10T19:52:27.208Z,11.06
2023-04-10T19:54:53.525Z,10.99
2023-04-10T19:57:19.965Z,10.95
2023-04-10T19:59:46.292Z,10.94
2023-04-10T20:02:12.776Z,10.89
2023-04-10T20:04:39.400Z,10.88
2023-04-10T20:07:05.915Z,10.87
2023-04-10T20:09:32.303Z,10.85
2023-04-10T20:11:58.613Z,10.87
2023-04-10T20:14:24.956Z,10.87
2023-04-10T20:16:51.268Z,10.88
2023-04-10T20:19:17.598Z,10.85
2023-04-10T20:21:43.899Z,10.82
2023-04-10T20:24:10.258Z,10.80
2023-04-10T20:26:36.543Z,10.81
2023-04-10T20:29:02.965Z,10.80
2023-04-10T20:31:29.274Z,10.75
2023-04-10T20:33:55.656Z,10.74
2023-04-10T20:36:21.986Z,10.73
2023-04-10T20:38:48.307Z,10.76
2023-04-10T20:41:14.622Z,10.73
2023-04-10T20:43:40.992Z,10.69
2023-04-10T20:46:07.651Z,10.69
2023-04-10T20:48:34.074Z,10.65
2023-04-10T20:51:00.493Z,10.67
2023-04-10T20:53:26.877Z,10.67
2023-04-10T20:55:53.240Z,10.63
2023-04-10T20:58:20.055Z,10.61
2023-04-10T21:00:46.562Z,10.56
2023-04-10T21:03:13.153Z,10.55
2023-04-10T21:05:42.670Z,10.52
2023-04-10T21:08:10.194Z,10.51
2023-04-10T21:10:36.545Z,10.52
2023-04-10T21:13:02.854Z,10.48
2023-04-10T21:15:29.145Z,10.47
2023-04-10T21:17:55.502Z,10.44
2023-04-10T21:20:22.807Z,10.42
2023-04-10T21:22:49.146Z,10.41
2023-04-10T21:25:15.449Z,10.38
2023-04-10T21:27:41.712Z,10.37
2023-04-10T21:30:09.403Z,10.39
2023-04-10T21:32:35.755Z,10.38
2023-04-10T21:35:02.100Z,10.37
2023-04-10T21:37:28.384Z,10.35
2023-04-10T21:39:54.680Z,10.32
2023-04-10T21:42:20.958Z,10.34
2023-04-10T21:44:47.247Z,10.34
2023-04-10T21:47:13.540Z,10.30
2023-04-10T21:49:39.937Z,10.29
2023-04-10T21:52:06.428Z,10.27
2023-04-10T21:54:32.872Z,10.29
2023-04-10T21:56:59.205Z,10.25
2023-04-10T21:59:25.500Z,10.23
2023-04-10T22:01:51.808Z,10.22
2023-04-10T22:04:18.416Z,10.20
2023-04-10T22:06:44.844Z,10.17
2023-04-10T22:09:11.121Z,10.18
2023-04-10T22:11:37.455Z,10.18
2023-04-10T22:14:14.893Z,10.19
2023-04-10T22:16:43.793Z,10.19
2023-04-10T22:19:10.171Z,10.15
2023-04-10T22:21:36.434Z,10.16
2023-04-10T22:24:02.838Z,10.20
2023-04-10T22:26:29.264Z,10.20
2023-04-10T22:28:55.906Z,10.17
2023-04-10T22:31:22.474Z,10.17
2023-04-10T22:33:48.824Z,10.16
2023-04-10T22:36:15.127Z,10.20
2023-04-10T22:38:41.416Z,10.18
2023-04-10T22:41:07.715Z,10.20
2023-04-10T22:43:34.368Z,10.21
2023-04-10T22:46:00.702Z,10.19
2023-04-10T22:48:27.225Z,10.20
2023-04-10T22:50:53.517Z,10.21
2023-04-10T22:53:19.799Z,10.23
2023-04-10T22:55:46.086Z,10.24
2023-04-10T22:58:12.388Z,10.21
2023-04-10T23:00:38.855Z,10.20
2023-04-10T23:03:05.211Z,10.19
2023-04-10T23:05:31.581Z,10.18
2023-04-10T23:07:58.017Z,10.18
2023-04-10T23:10:24.307Z,10.18
2023-04-10T23:12:50.614Z,10.21
2023-04-10T23:15:16.969Z,10.19
2023-04-10T23:17:43.366Z,10.18
2023-04-10T23:20:10.271Z,10.15
2023-04-10T23:22:36.648Z,10.13
2023-04-10T23:25:03.121Z,10.16
2023-04-10T23:27:29.395Z,10.16
2023-04-10T23:29:55.695Z,10.17
2023-04-10T23:32:22.093Z,10.18
2023-04-10T23:34:48.438Z,10.17
2023-04-10T23:37:14.708Z,10.20
2023-04-10T23:39:41.044Z,10.19
2023-04-10T23:42:07.306Z,10.20
2023-04-10T23:44:33.651Z,10.20
2023-04-10T23:47:00.060Z,10.14
2023-04-10T23:49:26.432Z,10.13
2023-04-10T23:51:52.705Z,10.15
2023-04-10T23:54:19.115Z,10.14
2023-04-10T23:56:45.421Z,10.16
2023-04-10T23:59:11.734Z,10.18
